Time;durP1;ratioP1;P1;durP2;ratioP2;P2;SDS_P1;SDS_P2;PMS_P1;PMS_P2;Temp;Humidity;BMP_temperature;BMP_pressure;BME280_temperature;BME280_humidity;BME280_pressure;Samples;Min_cycle;Max_cycle;Signal;HPM_P1;HPM_P2
2019/04/07 00:02:14;;;;;;;5.6;4.6;;;;;;;7.61;69.66797;945.6616;;;;
2019/04/07 00:04:39;;;;;;;5.9;4.1;;;;;;;7.44;70.35059;945.6598;;;;
2019/04/07 00:07:04;;;;;;;5;4.5;;;;;;;7.39;70.28613;945.6993;;;;
2019/04/07 00:09:29;;;;;;;7.1;4.6;;;;;;;7.36;70.53125;945.6909;;;;
2019/04/07 00:11:54;;;;;;;6;4.4;;;;;;;7.38;70.15723;945.6412;;;;
2019/04/07 00:14:19;;;;;;;6.6;4.5;;;;;;;7.38;70.35254;945.696;;;;
2019/04/07 00:16:44;;;;;;;5.8;4.5;;;;;;;7.36;70.48535;945.6694;;;;
2019/04/07 00:19:10;;;;;;;6;4.5;;;;;;;7.33;70.64063;945.6728;;;;
2019/04/07 00:21:52;;;;;;;6.1;4.6;;;;;;;7.38;70.51074;945.6333;;;;
2019/04/07 00:24:14;;;;;;;8;4.9;;;;;;;7.36;70.54199;945.6312;;;;
2019/04/07 00:26:37;;;;;;;7.3;5;;;;;;;7.35;70.64355;945.5812;;;;
2019/04/07 00:29:02;;;;;;;6.3;5.1;;;;;;;7.28;70.9082;945.5764;;;;
2019/04/07 00:31:28;;;;;;;5.9;4.9;;;;;;;7.3;70.80859;945.5611;;;;
2019/04/07 00:34:01;;;;;;;6.6;5.2;;;;;;;7.24;71.10742;945.5944;;;;
2019/04/07 00:36:31;;;;;;;6.8;5;;;;;;;7.24;71.01563;945.7216;;;;
2019/04/07 00:38:52;;;;;;;5.8;4.6;;;;;;;7.19;71.21484;945.6584;;;;
2019/04/07 00:41:15;;;;;;;7;4.9;;;;;;;7.13;71.46777;945.6577;;;;
2019/04/07 00:43:41;;;;;;;6.8;5.2;;;;;;;7.01;71.92871;945.6071;;;;
2019/04/07 00:46:13;;;;;;;6.8;5.3;;;;;;;6.93;72.54297;945.6331;;;;
2019/04/07 00:48:38;;;;;;;6.8;5.6;;;;;;;6.86;72.6123;945.6157;;;;
2019/04/07 00:51:04;;;;;;;6.8;5.5;;;;;;;6.77;72.84863;945.6426;;;;
2019/04/07 00:53:29;;;;;;;5.9;5.3;;;;;;;6.69;73.18945;945.6727;;;;
2019/04/07 00:55:55;;;;;;;6.4;5.1;;;;;;;6.62;73.53027;945.69;;;;
2019/04/07 00:58:19;;;;;;;6.8;5;;;;;;;6.63;73.61328;945.6628;;;;
2019/04/07 01:00:44;;;;;;;7.3;5.4;;;;;;;6.62;73.63379;945.6939;;;;
2019/04/07 01:03:09;;;;;;;7.3;5.4;;;;;;;6.61;73.59961;945.7036;;;;
2019/04/07 01:05:34;;;;;;;6.7;5.1;;;;;;;6.5;73.99023;945.733;;;;
2019/04/07 01:07:59;;;;;;;7.5;5.5;;;;;;;6.48;74.2959;945.8031;;;;
2019/04/07 01:10:25;;;;;;;6.2;5.4;;;;;;;6.49;74.08105;945.7847;;;;
2019/04/07 01:12:49;;;;;;;6.8;5.4;;;;;;;6.46;74.19043;945.7498;;;;
2019/04/07 01:15:15;;;;;;;9.2;5.5;;;;;;;6.49;74.16016;945.7925;;;;
2019/04/07 01:17:40;;;;;;;7.2;5.6;;;;;;;6.41;74.59277;945.7511;;;;
2019/04/07 01:20:05;;;;;;;7.3;5.6;;;;;;;6.33;74.875;945.7263;;;;
2019/04/07 01:22:30;;;;;;;7.6;5.6;;;;;;;6.24;75.2959;945.7484;;;;
2019/04/07 01:24:55;;;;;;;6.6;5.5;;;;;;;6.21;75.42676;945.7137;;;;
2019/04/07 01:27:20;;;;;;;7.9;5.9;;;;;;;6.21;76.31738;945.6716;;;;
2019/04/07 01:29:45;;;;;;;6.8;5.6;;;;;;;6.29;76.02344;945.6926;;;;
2019/04/07 01:32:10;;;;;;;8.8;5.9;;;;;;;6.25;75.52441;945.7095;;;;
2019/04/07 01:34:36;;;;;;;7.1;5.8;;;;;;;6.22;75.63379;945.7557;;;;
2019/04/07 01:37:03;;;;;;;9.7;5.9;;;;;;;6.24;75.56934;945.7866;;;;
2019/04/07 01:39:28;;;;;;;11.8;8.4;;;;;;;6.29;75.21191;945.7648;;;;
2019/04/07 01:42:00;;;;;;;8.7;5.8;;;;;;;6.16;75.71387;945.745;;;;
2019/04/07 01:44:26;;;;;;;6.6;5.2;;;;;;;6.18;75.69531;945.6789;;;;
2019/04/07 01:46:59;;;;;;;8.2;5.4;;;;;;;6.13;75.87891;945.6936;;;;
2019/04/07 01:51:43;;;;;;;7.9;6.1;;;;;;;6.09;76.02051;945.6295;;;;
2019/04/07 01:56:37;;;;;;;7.6;6;;;;;;;6.02;76.37402;945.7051;;;;
2019/04/07 01:58:58;;;;;;;7;6;;;;;;;5.94;76.7373;945.663;;;;
2019/04/07 02:01:24;;;;;;;8.2;6.6;;;;;;;5.94;78.23145;945.6552;;;;
2019/04/07 02:03:49;;;;;;;13.1;7.1;;;;;;;5.93;77.90039;945.6898;;;;
2019/04/07 02:06:14;;;;;;;9.7;6.9;;;;;;;5.88;78.56445;945.7239;;;;
2019/04/07 02:11:06;;;;;;;12.8;6.8;;;;;;;5.77;78.7959;945.7151;;;;
2019/04/07 02:13:38;;;;;;;11.4;6.4;;;;;;;5.78;78.98926;945.6976;;;;
2019/04/07 02:18:18;;;;;;;9.7;7.1;;;;;;;5.67;79.36914;945.7133;;;;
2019/04/07 02:23:11;;;;;;;10.3;7.2;;;;;;;5.63;79.98926;945.7222;;;;
2019/04/07 02:25:36;;;;;;;10.5;6.5;;;;;;;5.61;79.12891;945.7626;;;;
2019/04/07 02:28:01;;;;;;;9.2;7;;;;;;;5.63;79.20215;945.7642;;;;
2019/04/07 02:30:32;;;;;;;8.9;7.2;;;;;;;5.55;79.09668;945.7645;;;;
2019/04/07 02:32:56;;;;;;;9.8;6.5;;;;;;;5.52;78.99902;945.7424;;;;
2019/04/07 02:37:41;;;;;;;8.1;6.5;;;;;;;5.48;78.94824;945.7123;;;;
2019/04/07 02:40:08;;;;;;;7.7;6.6;;;;;;;5.44;79.09961;945.6997;;;;
2019/04/07 02:42:34;;;;;;;7.6;6.4;;;;;;;5.42;79.17383;945.6096;;;;
2019/04/07 02:52:14;;;;;;;8.2;7;;;;;;;5.31;79.72461;945.7058;;;;
2019/04/07 02:57:02;;;;;;;9.1;7.1;;;;;;;5.42;79.34668;945.7356;;;;
2019/04/07 02:59:28;;;;;;;8;6.7;;;;;;;5.48;79.3584;945.8098;;;;
2019/04/07 03:01:53;;;;;;;8.8;7.4;;;;;;;5.46;79.30762;945.8085;;;;
2019/04/07 03:07:15;;;;;;;10.6;7.8;;;;;;;5.49;79.41602;945.7878;;;;
2019/04/07 03:11:40;;;;;;;9.6;8.3;;;;;;;5.51;79.40918;945.8408;;;;
2019/04/07 03:14:07;;;;;;;9.3;7.7;;;;;;;5.47;79.64063;945.8614;;;;
2019/04/07 03:16:40;;;;;;;10.4;8.3;;;;;;;5.41;79.88086;945.9102;;;;
2019/04/07 03:21:32;;;;;;;11.2;8;;;;;;;5.41;79.83594;945.8594;;;;
2019/04/07 03:26:31;;;;;;;9.9;8.9;;;;;;;5.46;79.92383;945.9774;;;;
2019/04/07 03:28:51;;;;;;;9.1;7.7;;;;;;;5.49;79.83887;946.0074;;;;
2019/04/07 03:31:21;;;;;;;8.8;7.9;;;;;;;5.57;79.48926;946.1083;;;;
2019/04/07 03:33:40;;;;;;;8.9;7.9;;;;;;;5.54;79.6084;946.0533;;;;
2019/04/07 03:36:08;;;;;;;10.2;8.3;;;;;;;5.43;79.9873;946.0265;;;;
2019/04/07 03:40:53;;;;;;;9.7;8.7;;;;;;;5.39;80.20801;946.0305;;;;
2019/04/07 03:43:23;;;;;;;9.3;8.3;;;;;;;5.32;80.59277;945.9755;;;;
2019/04/07 03:45:44;;;;;;;12.7;8.7;;;;;;;5.33;80.52539;946.0165;;;;
2019/04/07 03:48:09;;;;;;;10;8.4;;;;;;;5.3;80.77148;945.9808;;;;
2019/04/07 03:50:48;;;;;;;9.8;8.8;;;;;;;5.38;80.3418;946.003;;;;
2019/04/07 03:53:17;;;;;;;11.2;8.6;;;;;;;5.51;79.84277;945.9842;;;;
2019/04/07 03:56:45;;;;;;;12.8;8.8;;;;;;;5.63;79.22363;946.0101;;;;
2019/04/07 04:02:36;;;;;;;9.3;8.3;;;;;;;5.66;79.02637;945.9384;;;;
2019/04/07 04:05:05;;;;;;;9.7;8.7;;;;;;;5.66;78.93555;945.9384;;;;
2019/04/07 04:07:35;;;;;;;9.2;8.1;;;;;;;5.71;78.9209;945.9416;;;;
2019/04/07 04:09:54;;;;;;;9.6;8.3;;;;;;;5.86;78.16113;945.9082;;;;
2019/04/07 04:12:17;;;;;;;9.9;7.9;;;;;;;5.77;78.83984;945.9356;;;;
2019/04/07 04:14:42;;;;;;;9.4;8;;;;;;;5.8;78.6748;945.9403;;;;
2019/04/07 04:17:02;;;;;;;11.3;8.5;;;;;;;5.73;79.64258;945.9564;;;;
2019/04/07 04:19:27;;;;;;;10.3;8.7;;;;;;;5.78;80.06348;945.9467;;;;
2019/04/07 04:21:52;;;;;;;10.2;8.8;;;;;;;5.81;80.11621;945.9727;;;;
2019/04/07 04:24:17;;;;;;;11.1;9.1;;;;;;;5.81;80.01172;945.9648;;;;
2019/04/07 04:26:42;;;;;;;10.3;9.3;;;;;;;5.8;79.34863;946.0253;;;;
2019/04/07 04:29:07;;;;;;;9.7;8.7;;;;;;;5.8;79.61035;946.0078;;;;
2019/04/07 04:31:33;;;;;;;9.4;8.4;;;;;;;5.79;80.16797;946.0385;;;;
2019/04/07 04:33:59;;;;;;;10.6;9;;;;;;;5.78;80.48438;946.0403;;;;
2019/04/07 04:36:24;;;;;;;10.8;8.6;;;;;;;5.71;80.17578;946.0898;;;;
2019/04/07 04:38:50;;;;;;;9.5;8.5;;;;;;;5.67;80.2373;946.1233;;;;
2019/04/07 04:41:16;;;;;;;8.8;7.9;;;;;;;5.61;80.43164;946.2273;;;;
2019/04/07 04:43:40;;;;;;;9.6;8.5;;;;;;;5.64;79.66016;946.2787;;;;
2019/04/07 04:46:06;;;;;;;9.9;8.9;;;;;;;5.61;79.44824;946.2448;;;;
2019/04/07 04:48:31;;;;;;;10;8.7;;;;;;;5.59;80.21094;946.2806;;;;
2019/04/07 04:50:58;;;;;;;12.1;9.6;;;;;;;5.52;80.54004;946.2791;;;;
2019/04/07 04:53:23;;;;;;;10.7;8.4;;;;;;;5.5;80.4668;946.2524;;;;
2019/04/07 04:55:49;;;;;;;9.6;8.6;;;;;;;5.57;80.16016;946.2869;;;;
2019/04/07 04:58:15;;;;;;;12;9.6;;;;;;;5.42;80.81738;946.2898;;;;
2019/04/07 05:00:49;;;;;;;9.8;8.3;;;;;;;5.31;81.25195;946.2974;;;;
2019/04/07 05:03:14;;;;;;;12.4;9.4;;;;;;;5.24;81.52441;946.3044;;;;
2019/04/07 05:05:39;;;;;;;11;9.2;;;;;;;5.18;81.67285;946.3657;;;;
2019/04/07 05:08:04;;;;;;;9.6;8.6;;;;;;;5.21;81.60938;946.3837;;;;
2019/04/07 05:10:29;;;;;;;9.5;8.5;;;;;;;5.19;81.60547;946.433;;;;
2019/04/07 05:12:54;;;;;;;10.8;9.8;;;;;;;5.17;81.75098;946.5153;;;;
2019/04/07 05:15:19;;;;;;;9.2;8.3;;;;;;;5.3;80.85156;946.4675;;;;
2019/04/07 05:17:44;;;;;;;11.1;8.6;;;;;;;5.36;80.31543;946.4905;;;;
2019/04/07 05:20:09;;;;;;;9.8;8.6;;;;;;;5.37;80.43359;946.519;;;;
2019/04/07 05:22:34;;;;;;;8.7;7.8;;;;;;;5.3;81.13574;946.6237;;;;
2019/04/07 05:25:00;;;;;;;10.6;8.7;;;;;;;5.34;81.53223;946.5944;;;;
2019/04/07 05:27:25;;;;;;;9.4;8.4;;;;;;;5.35;80.95215;946.6735;;;;
2019/04/07 05:29:52;;;;;;;10.8;9;;;;;;;5.38;81.04883;946.7133;;;;
2019/04/07 05:32:17;;;;;;;10.2;9.2;;;;;;;5.36;80.93164;946.7696;;;;
2019/04/07 05:34:43;;;;;;;12.1;9.7;;;;;;;5.48;80.53125;946.77;;;;
2019/04/07 05:37:08;;;;;;;12.2;11;;;;;;;5.38;82.85059;946.7845;;;;
2019/04/07 05:39:34;;;;;;;12.4;11.1;;;;;;;5.48;82.32324;946.8033;;;;
2019/04/07 05:42:00;;;;;;;12.6;11.3;;;;;;;5.56;81.81445;946.8499;;;;
2019/04/07 05:44:26;;;;;;;11.5;10.3;;;;;;;5.65;80.59766;946.8616;;;;
2019/04/07 05:46:52;;;;;;;11;9.8;;;;;;;5.77;80.00293;946.8748;;;;
2019/04/07 05:49:18;;;;;;;13.4;11.8;;;;;;;5.65;81.71387;946.9172;;;;
2019/04/07 05:51:51;;;;;;;15.6;11.9;;;;;;;5.63;81.54297;946.9355;;;;
2019/04/07 05:54:22;;;;;;;12.5;11.2;;;;;;;5.81;80.84668;946.9247;;;;
2019/04/07 05:56:47;;;;;;;13.2;11.9;;;;;;;5.87;80.9248;946.9443;;;;
2019/04/07 05:59:12;;;;;;;11.8;10.2;;;;;;;6.05;79.49707;946.9677;;;;
2019/04/07 06:01:37;;;;;;;10.9;9.8;;;;;;;6.18;79.0752;946.8688;;;;
2019/04/07 06:04:03;;;;;;;11.4;10.2;;;;;;;6.37;78.37988;946.8986;;;;
2019/04/07 06:06:28;;;;;;;13.3;11.9;;;;;;;6.23;79.00488;946.9009;;;;
2019/04/07 06:08:53;;;;;;;13.3;11.9;;;;;;;6.31;79.14551;946.9221;;;;
2019/04/07 06:11:18;;;;;;;13.3;11.4;;;;;;;6.41;78.30664;946.9112;;;;
2019/04/07 06:13:43;;;;;;;13.3;10.8;;;;;;;6.68;76.80176;946.8899;;;;
2019/04/07 06:16:08;;;;;;;12.9;10.7;;;;;;;6.56;77.05371;946.8867;;;;
2019/04/07 06:18:34;;;;;;;12;10.8;;;;;;;6.65;77.52734;946.8384;;;;
2019/04/07 06:20:59;;;;;;;11.1;10;;;;;;;6.86;76.67188;946.8281;;;;
2019/04/07 06:23:24;;;;;;;10.6;9.5;;;;;;;7.06;74.69434;946.8942;;;;
2019/04/07 06:25:49;;;;;;;10.4;9.2;;;;;;;7.09;74.35547;946.7939;;;;
2019/04/07 06:28:14;;;;;;;9.7;8.5;;;;;;;7.13;73.41211;946.7473;;;;
2019/04/07 06:30:39;;;;;;;9;7.8;;;;;;;7.26;72.85059;946.6691;;;;
2019/04/07 06:33:05;;;;;;;7.9;7.1;;;;;;;7.34;71.73242;946.6802;;;;
2019/04/07 06:35:31;;;;;;;9.1;6.9;;;;;;;7.42;71.06934;946.6882;;;;
2019/04/07 06:37:57;;;;;;;7.1;6.4;;;;;;;7.56;71.0459;946.698;;;;
2019/04/07 06:40:22;;;;;;;8.4;6.3;;;;;;;7.42;71.4248;946.6882;;;;
2019/04/07 06:42:47;;;;;;;6.8;6.1;;;;;;;7.57;71.41602;946.7561;;;;
2019/04/07 06:45:15;;;;;;;6.3;5.7;;;;;;;7.66;69.5625;946.818;;;;
2019/04/07 06:47:46;;;;;;;6.5;5.9;;;;;;;7.68;70.50391;946.8505;;;;
2019/04/07 06:52:37;;;;;;;6.6;5.9;;;;;;;7.6;70.2041;946.8042;;;;
2019/04/07 06:57:29;;;;;;;6.7;5.7;;;;;;;7.95;70.0791;946.8491;;;;
2019/04/07 07:07:22;;;;;;;6.8;6.1;;;;;;;8.28;67.83691;946.9247;;;;
2019/04/07 07:09:39;;;;;;;5.4;4.9;;;;;;;8.66;65.27637;946.8887;;;;
2019/04/07 07:12:09;;;;;;;5.6;5.1;;;;;;;9.04;63.58594;946.9424;;;;
2019/04/07 07:16:46;;;;;;;6.6;5.9;;;;;;;9.29;64.55469;947.0101;;;;
2019/04/07 07:19:13;;;;;;;6.9;6.2;;;;;;;8.49;67.18066;947.0115;;;;
2019/04/07 07:23:55;;;;;;;7.9;6.6;;;;;;;8.91;65.5332;947.0552;;;;
2019/04/07 07:26:20;;;;;;;7.9;7.1;;;;;;;8.83;65.7627;947.0602;;;;
2019/04/07 07:28:47;;;;;;;7.4;6.7;;;;;;;8.74;65.8291;947.0887;;;;
2019/04/07 07:31:12;;;;;;;7.6;6.9;;;;;;;8.58;69.22754;947.0477;;;;
2019/04/07 07:33:38;;;;;;;7.9;7.1;;;;;;;8.66;68.40137;947.0594;;;;
2019/04/07 07:36:04;;;;;;;7.7;6.9;;;;;;;8.74;66.23145;946.9562;;;;
2019/04/07 07:38:30;;;;;;;7.4;6.7;;;;;;;8.81;66.48535;947.0199;;;;
2019/04/07 07:40:56;;;;;;;7.3;6.5;;;;;;;8.79;65.95117;947.0146;;;;
2019/04/07 07:43:21;;;;;;;7.9;7.1;;;;;;;8.72;67.45605;946.9972;;;;
2019/04/07 07:45:46;;;;;;;8.5;6.8;;;;;;;8.92;70.3291;947.1258;;;;
2019/04/07 07:48:13;;;;;;;7.7;7;;;;;;;8.55;68.07324;947.1535;;;;
2019/04/07 07:50:38;;;;;;;7.6;6.8;;;;;;;8.88;67.62012;947.1656;;;;
2019/04/07 07:53:05;;;;;;;7.7;6.9;;;;;;;8.54;67.12012;947.1241;;;;
2019/04/07 07:55:30;;;;;;;7.4;6.7;;;;;;;8.6;67.08203;947.1305;;;;
2019/04/07 07:57:56;;;;;;;8;6.7;;;;;;;8.86;66.3291;947.1469;;;;
2019/04/07 08:00:21;;;;;;;7.3;6.6;;;;;;;8.89;66.64551;947.0832;;;;
2019/04/07 08:02:46;;;;;;;7.7;7;;;;;;;8.92;66.375;947.1895;;;;
2019/04/07 08:05:11;;;;;;;7.7;6.8;;;;;;;9.33;65.02344;947.1361;;;;
2019/04/07 08:07:37;;;;;;;8.4;7.1;;;;;;;9.48;64.57227;947.1993;;;;
2019/04/07 08:10:02;;;;;;;9.8;7.3;;;;;;;9.32;65.12402;947.2353;;;;
2019/04/07 08:12:27;;;;;;;8.4;6.5;;;;;;;9.76;63.18555;947.1912;;;;
2019/04/07 08:14:55;;;;;;;7.9;7.1;;;;;;;9.92;62.5293;947.1884;;;;
2019/04/07 08:17:20;;;;;;;8.3;7.2;;;;;;;9.98;63.17285;947.2191;;;;
2019/04/07 08:19:45;;;;;;;8;7.2;;;;;;;9.9;63.89844;947.31;;;;
2019/04/07 08:22:11;;;;;;;7.8;7;;;;;;;10.08;61.90723;947.2963;;;;
2019/04/07 08:24:37;;;;;;;8.1;7.2;;;;;;;10.15;62.2627;947.2673;;;;
2019/04/07 08:27:02;;;;;;;8.5;7.6;;;;;;;9.9;61.98438;947.2766;;;;
2019/04/07 08:29:28;;;;;;;7.5;6.7;;;;;;;10.36;61.54395;947.3007;;;;
2019/04/07 08:31:53;;;;;;;8.9;6.9;;;;;;;10.73;59.11523;947.3563;;;;
2019/04/07 08:34:21;;;;;;;7.7;7;;;;;;;10.69;60.15918;947.2892;;;;
2019/04/07 08:36:46;;;;;;;10.3;6.9;;;;;;;10.55;59.32129;947.4217;;;;
2019/04/07 08:39:12;;;;;;;8.8;7.1;;;;;;;10.71;59.48242;947.3886;;;;
2019/04/07 08:41:37;;;;;;;7.8;7.1;;;;;;;10.91;58.97754;947.3547;;;;
2019/04/07 08:44:03;;;;;;;8.1;7.4;;;;;;;11;61.0459;947.4288;;;;
2019/04/07 08:46:30;;;;;;;8.1;7.3;;;;;;;11.16;58.74609;947.4352;;;;
2019/04/07 08:49:01;;;;;;;9.7;7.9;;;;;;;11.19;59.31445;947.4182;;;;
2019/04/07 08:51:18;;;;;;;8.9;8;;;;;;;10.89;59.85156;947.4777;;;;
2019/04/07 08:53:43;;;;;;;9.3;8.3;;;;;;;11.05;58.93848;947.4319;;;;
2019/04/07 08:56:11;;;;;;;9.1;7.2;;;;;;;11.27;57.30273;947.5021;;;;
2019/04/07 08:58:36;;;;;;;9;8.1;;;;;;;11.29;59.12109;947.5335;;;;
2019/04/07 09:01:01;;;;;;;8.5;7.6;;;;;;;11.52;56.83984;947.5594;;;;
2019/04/07 09:03:27;;;;;;;8.8;7.9;;;;;;;11.86;55.69336;947.5833;;;;
2019/04/07 09:05:53;;;;;;;9.8;8.5;;;;;;;11.6;57.19727;947.5276;;;;
2019/04/07 09:08:18;;;;;;;9.7;8.2;;;;;;;11.22;57.71484;947.5375;;;;
2019/04/07 09:10:49;;;;;;;10.8;8.1;;;;;;;11.64;57.64355;947.4666;;;;
2019/04/07 09:13:10;;;;;;;8.7;7.9;;;;;;;12.3;54.88086;947.4875;;;;
2019/04/07 09:15:43;;;;;;;8.8;7.9;;;;;;;12.6;54.46582;947.4006;;;;
2019/04/07 09:18:08;;;;;;;9.2;8.3;;;;;;;12.79;53.64258;947.3967;;;;
2019/04/07 09:20:34;;;;;;;9.6;8.2;;;;;;;12.33;55.77637;947.4322;;;;
2019/04/07 09:25:24;;;;;;;9.4;8.5;;;;;;;12.44;54.62109;947.4645;;;;
2019/04/07 09:27:47;;;;;;;10.6;8;;;;;;;12.74;52.34863;947.3694;;;;
2019/04/07 09:30:13;;;;;;;9.9;8.8;;;;;;;12.41;53.85156;947.4428;;;;
2019/04/07 09:32:43;;;;;;;9.9;8.3;;;;;;;12.71;53.86523;947.4506;;;;
2019/04/07 09:35:08;;;;;;;9.7;8.8;;;;;;;12.61;56.13672;947.4548;;;;
2019/04/07 09:37:35;;;;;;;9;8.1;;;;;;;12.82;53.20703;947.5122;;;;
2019/04/07 09:39:55;;;;;;;9.9;8.9;;;;;;;12.91;53.24121;947.4702;;;;
2019/04/07 09:42:20;;;;;;;10.2;9.1;;;;;;;12.85;54.04492;947.5477;;;;
2019/04/07 09:47:11;;;;;;;9.5;8.6;;;;;;;13.18;53.21582;947.5842;;;;
2019/04/07 09:52:06;;;;;;;9.9;8.9;;;;;;;13.23;53.38477;947.603;;;;
2019/04/07 09:59:20;;;;;;;11.1;9.3;;;;;;;13.75;50.04199;947.6309;;;;
2019/04/07 10:04:09;;;;;;;10.3;9.2;;;;;;;14.35;50.21484;947.6125;;;;
2019/04/07 10:13:52;;;;;;;10;9.1;;;;;;;13.75;51.9375;947.6437;;;;
2019/04/07 10:16:15;;;;;;;10.5;9.4;;;;;;;13.71;51.54785;947.6618;;;;
2019/04/07 10:21:10;;;;;;;10.5;9.5;;;;;;;13.53;52.03809;947.597;;;;
2019/04/07 10:23:28;;;;;;;10.2;9.2;;;;;;;13.96;50.24121;947.6528;;;;
2019/04/07 10:28:17;;;;;;;11.1;10;;;;;;;13.57;51.83398;947.6857;;;;
2019/04/07 10:33:18;;;;;;;10.9;9.9;;;;;;;14.25;49.72754;947.6429;;;;
2019/04/07 10:38:18;;;;;;;10.1;9.2;;;;;;;14.44;48.51465;947.6679;;;;
2019/04/07 10:40:42;;;;;;;11.3;10.2;;;;;;;14.02;50.52637;947.666;;;;
2019/04/07 10:45:39;;;;;;;10.9;9.8;;;;;;;14.23;50.18945;947.6206;;;;
2019/04/07 10:48:02;;;;;;;10.5;9.5;;;;;;;14.44;49.96973;947.5559;;;;
2019/04/07 10:57:53;;;;;;;9.8;8.9;;;;;;;15.02;47.72754;947.7068;;;;
2019/04/07 11:00:28;;;;;;;11.5;10.3;;;;;;;15.32;46.875;947.6333;;;;
2019/04/07 11:02:44;;;;;;;10.7;9.7;;;;;;;14.21;51.63184;947.6139;;;;
2019/04/07 11:10:00;;;;;;;10.5;9.5;;;;;;;16.43;48.58398;947.4622;;;;
2019/04/07 11:12:29;;;;;;;10.5;9.4;;;;;;;16.5;47.36426;947.5034;;;;
2019/04/07 11:17:31;;;;;;;10.8;9.8;;;;;;;16.81;46.83398;947.5316;;;;
2019/04/07 11:19:45;;;;;;;12;9.4;;;;;;;16.77;45.12207;947.5192;;;;
2019/04/07 11:22:09;;;;;;;12.2;10;;;;;;;16.65;45.90527;947.5583;;;;
2019/04/07 11:26:57;;;;;;;10.8;9.7;;;;;;;17.57;43.29199;947.5369;;;;
2019/04/07 11:29:22;;;;;;;11;9.9;;;;;;;17.7;43.42188;947.491;;;;
2019/04/07 11:36:44;;;;;;;12.3;11.2;;;;;;;17.09;45.45996;947.4503;;;;
2019/04/07 11:44:02;;;;;;;11.7;10.3;;;;;;;19.43;42.14453;947.4473;;;;
2019/04/07 11:46:25;;;;;;;11.5;10.3;;;;;;;18.37;42.00781;947.4734;;;;
2019/04/07 11:48:49;;;;;;;10.8;9.7;;;;;;;18.83;42.69922;947.5389;;;;
2019/04/07 11:56:12;;;;;;;12.3;10.4;;;;;;;17.31;43.79395;947.4253;;;;
2019/04/07 11:58:33;;;;;;;11.2;10.2;;;;;;;17.07;43.85254;947.5222;;;;
2019/04/07 12:05:45;;;;;;;11.7;10.6;;;;;;;16.88;44.38379;947.533;;;;
2019/04/07 12:10:41;;;;;;;11.9;10.8;;;;;;;17.73;41.62988;947.5251;;;;
2019/04/07 12:13:04;;;;;;;14;12.7;;;;;;;15.51;47.02344;947.5294;;;;
2019/04/07 12:17:57;;;;;;;12.5;11.3;;;;;;;15.77;48.33594;947.5385;;;;
2019/04/07 12:23:13;;;;;;;12.2;11.1;;;;;;;15.68;47.15723;947.5131;;;;
2019/04/07 12:27:44;;;;;;;12.9;11.7;;;;;;;17;44.25488;947.4939;;;;
2019/04/07 12:32:26;;;;;;;11.5;10.3;;;;;;;16.94;43.33594;947.4811;;;;
2019/04/07 12:37:29;;;;;;;10.8;9.8;;;;;;;19.99;36.84668;947.4167;;;;
2019/04/07 12:47:14;;;;;;;11.9;10.7;;;;;;;17.97;43.4834;947.4409;;;;
2019/04/07 12:49:28;;;;;;;11.8;10.7;;;;;;;17.52;43.01758;947.4365;;;;
2019/04/07 12:54:16;;;;;;;11.1;9.9;;;;;;;18.91;39.8252;947.405;;;;
2019/04/07 12:59:14;;;;;;;12;10.9;;;;;;;18.52;41.55371;947.3019;;;;
2019/04/07 13:01:59;;;;;;;11.2;10.1;;;;;;;19.68;37.18457;947.3303;;;;
2019/04/07 13:03:56;;;;;;;11;10;;;;;;;18.81;38.86426;947.278;;;;
2019/04/07 13:08:49;;;;;;;11.2;10.1;;;;;;;20.71;36.50488;947.3463;;;;
2019/04/07 13:11:14;;;;;;;10.9;9.9;;;;;;;20.69;36.97461;947.3412;;;;
2019/04/07 13:13:37;;;;;;;10.6;9.7;;;;;;;20.18;37.62891;947.3904;;;;
2019/04/07 13:18:56;;;;;;;11.1;10.1;;;;;;;17.43;44.68555;947.3589;;;;
2019/04/07 13:23:21;;;;;;;11.6;10.4;;;;;;;17.42;43.36035;947.3432;;;;
2019/04/07 13:25:42;;;;;;;11.4;10.3;;;;;;;17.2;44.49707;947.3731;;;;
2019/04/07 13:30:40;;;;;;;11;10;;;;;;;20.41;37.42383;947.3269;;;;
2019/04/07 13:38:03;;;;;;;11.2;10.2;;;;;;;20.46;37.75879;947.3141;;;;
2019/04/07 13:43:00;;;;;;;12.2;11;;;;;;;19.17;38.78906;947.3036;;;;
2019/04/07 13:46:14;;;;;;;11.4;10.4;;;;;;;18.6;41.66602;947.3339;;;;
2019/04/07 13:47:43;;;;;;;12.2;11.1;;;;;;;18.03;40.2627;947.2672;;;;
2019/04/07 13:52:35;;;;;;;11.8;10.8;;;;;;;19.38;39.97363;947.2653;;;;
2019/04/07 13:55:37;;;;;;;11.4;10.4;;;;;;;19.76;38.9834;947.3373;;;;
2019/04/07 13:57:32;;;;;;;10.8;9.9;;;;;;;20.07;38.38574;947.2523;;;;
2019/04/07 14:07:03;;;;;;;12;10.8;;;;;;;20.38;36.05273;947.3267;;;;
2019/04/07 14:11:53;;;;;;;10.8;9.6;;;;;;;21.08;35.68359;947.2798;;;;
2019/04/07 14:14:28;;;;;;;11;9.9;;;;;;;20.74;36.54199;947.3635;;;;
2019/04/07 14:16:46;;;;;;;11.6;10.6;;;;;;;20.94;35.77832;947.3652;;;;
2019/04/07 14:21:40;;;;;;;11.2;9.3;;;;;;;22.76;34.11035;947.4227;;;;
2019/04/07 14:29:23;;;;;;;11.6;10.5;;;;;;;19.73;36.7168;947.4993;;;;
2019/04/07 14:31:34;;;;;;;11;10;;;;;;;18.84;40.33691;947.4807;;;;
2019/04/07 14:34:07;;;;;;;11.3;10.2;;;;;;;18.44;39.18359;947.4239;;;;
2019/04/07 14:36:25;;;;;;;10.4;9.5;;;;;;;18.45;40.13574;947.3747;;;;
2019/04/07 14:38:46;;;;;;;10.5;9.5;;;;;;;19.27;38.66992;947.4292;;;;
2019/04/07 14:41:13;;;;;;;10.6;9.6;;;;;;;18.86;39.02051;947.3964;;;;
2019/04/07 14:46:03;;;;;;;11.1;10.1;;;;;;;18.26;40.83496;947.4345;;;;
2019/04/07 14:48:30;;;;;;;9.9;8.9;;;;;;;19.57;37.62305;947.3682;;;;
2019/04/07 14:50:59;;;;;;;10.1;9.1;;;;;;;20.04;39.66797;947.4001;;;;
2019/04/07 14:53:19;;;;;;;9.9;9;;;;;;;20.31;37.62793;947.4172;;;;
2019/04/07 14:55:45;;;;;;;11.2;9.7;;;;;;;19.75;38.4043;947.4659;;;;
2019/04/07 15:02:52;;;;;;;11.3;10.2;;;;;;;17.62;44.36426;947.49;;;;
2019/04/07 15:05:22;;;;;;;11.6;10.4;;;;;;;17.52;43.55762;947.509;;;;
2019/04/07 15:07:47;;;;;;;11.8;10.6;;;;;;;17.23;44.91016;947.6233;;;;
2019/04/07 15:12:37;;;;;;;11.6;10.6;;;;;;;17.6;44.72559;947.6358;;;;
2019/04/07 15:14:58;;;;;;;12.5;11.4;;;;;;;17.07;45.76172;947.6216;;;;
2019/04/07 15:17:23;;;;;;;12.4;11.3;;;;;;;18.16;43.78516;947.5797;;;;
2019/04/07 15:19:54;;;;;;;12.3;11;;;;;;;18.89;41.94043;947.625;;;;
2019/04/07 15:22:42;;;;;;;11.2;10.2;;;;;;;18.49;43.67578;947.5799;;;;
2019/04/07 15:25:23;;;;;;;11.5;10.4;;;;;;;17.45;45.34375;947.5416;;;;
2019/04/07 15:28:05;;;;;;;12.2;11.1;;;;;;;17.2;45.51758;947.5839;;;;
2019/04/07 15:30:45;;;;;;;13.6;11.6;;;;;;;16.88;46.53809;947.6415;;;;
2019/04/07 15:33:10;;;;;;;12.8;11.6;;;;;;;16.59;46.75293;947.5891;;;;
2019/04/07 15:35:35;;;;;;;12.9;11.5;;;;;;;16.47;48.14258;947.6292;;;;
2019/04/07 15:38:01;;;;;;;13.2;11.6;;;;;;;15.87;49.79492;947.6528;;;;
2019/04/07 15:40:26;;;;;;;13.4;12.1;;;;;;;15.91;50.33594;947.6046;;;;
2019/04/07 15:42:51;;;;;;;13.2;11.9;;;;;;;16.04;49.62695;947.676;;;;
2019/04/07 15:45:16;;;;;;;12.1;10.9;;;;;;;16.95;46.70898;947.7603;;;;
2019/04/07 15:47:41;;;;;;;12.3;11;;;;;;;17.51;45.53809;947.6447;;;;
2019/04/07 15:50:07;;;;;;;11.5;10.4;;;;;;;18.06;42.89453;947.6376;;;;
2019/04/07 15:52:38;;;;;;;12.5;11.2;;;;;;;17.91;43.11426;947.6305;;;;
2019/04/07 15:55:22;;;;;;;12.5;11.3;;;;;;;18.35;42.40625;947.709;;;;
2019/04/07 15:57:46;;;;;;;12.2;11;;;;;;;18.5;42.28027;947.6982;;;;
2019/04/07 16:00:32;;;;;;;11.6;10.5;;;;;;;18.86;42.43262;947.7286;;;;
2019/04/07 16:03:13;;;;;;;13.6;10.6;;;;;;;19.19;40.95703;947.7059;;;;
2019/04/07 16:05:53;;;;;;;11.5;10.4;;;;;;;18.39;42.9502;947.7031;;;;
2019/04/07 16:08:35;;;;;;;11.6;10.6;;;;;;;17.4;43.94336;947.7051;;;;
2019/04/07 16:11:16;;;;;;;12;10.8;;;;;;;17.61;43.44922;947.6631;;;;
2019/04/07 16:13:57;;;;;;;11.8;10.8;;;;;;;17.43;43.66602;947.6692;;;;
2019/04/07 16:16:37;;;;;;;12.3;11.1;;;;;;;17.59;44.01074;947.7224;;;;
2019/04/07 16:19:19;;;;;;;12.1;11;;;;;;;17.6;43.83496;947.769;;;;
2019/04/07 16:21:59;;;;;;;11.5;10.4;;;;;;;17.43;43.30273;947.7598;;;;
2019/04/07 16:24:40;;;;;;;12.2;11;;;;;;;16.82;45.92383;947.8264;;;;
2019/04/07 16:27:21;;;;;;;12.1;10.9;;;;;;;16.97;45.77539;947.8164;;;;
2019/04/07 16:29:46;;;;;;;11.7;10.7;;;;;;;16.9;44.73633;947.8059;;;;
2019/04/07 16:32:11;;;;;;;11.4;10.3;;;;;;;17.04;45.06738;947.7723;;;;
2019/04/07 16:34:37;;;;;;;11;9.9;;;;;;;17.15;43.68457;947.7472;;;;
2019/04/07 16:37:07;;;;;;;10.8;9.8;;;;;;;17.07;44.56641;947.7587;;;;
2019/04/07 16:39:32;;;;;;;10.5;9.6;;;;;;;17.51;45.35059;947.783;;;;
2019/04/07 16:41:57;;;;;;;10.3;9.4;;;;;;;17.67;43.70117;947.7715;;;;
2019/04/07 16:44:23;;;;;;;10.1;9.2;;;;;;;16.52;47.2373;947.8747;;;;
2019/04/07 16:46:48;;;;;;;11.7;9.1;;;;;;;16.4;47.1416;947.8759;;;;
2019/04/07 16:49:18;;;;;;;9.9;8.9;;;;;;;16.42;46.24316;947.8516;;;;
2019/04/07 16:51:43;;;;;;;10.2;9.1;;;;;;;16.42;46.4082;947.8723;;;;
2019/04/07 16:54:18;;;;;;;9.9;8.9;;;;;;;16.42;46.2666;947.8516;;;;
2019/04/07 16:57:00;;;;;;;10.5;9.1;;;;;;;16.69;45.78125;947.8588;;;;
2019/04/07 16:59:41;;;;;;;9.8;8.9;;;;;;;16.34;46.28223;947.9536;;;;
2019/04/07 17:02:21;;;;;;;9.4;8.2;;;;;;;16.2;46.3252;947.9438;;;;
2019/04/07 17:05:02;;;;;;;9.7;8.8;;;;;;;15.98;46.79395;947.92;;;;
2019/04/07 17:07:43;;;;;;;9.4;8.5;;;;;;;16.36;45.59473;947.8816;;;;
2019/04/07 17:10:24;;;;;;;9.5;8.6;;;;;;;15.93;46.63574;947.8979;;;;
2019/04/07 17:13:04;;;;;;;9.1;8.2;;;;;;;15.56;47.6123;947.9509;;;;
2019/04/07 17:15:45;;;;;;;9.1;8.2;;;;;;;15.35;49.57324;947.942;;;;
2019/04/07 17:18:26;;;;;;;8.6;7.8;;;;;;;15.61;47.56055;947.9303;;;;
2019/04/07 17:20:52;;;;;;;8.7;7.9;;;;;;;15.53;47.84277;948.0276;;;;
2019/04/07 17:23:34;;;;;;;8.6;7.8;;;;;;;15.4;47.95703;948.0424;;;;
2019/04/07 17:26:15;;;;;;;9.2;8.3;;;;;;;15.36;47.625;948.1384;;;;
2019/04/07 17:28:56;;;;;;;8.3;7.5;;;;;;;15.33;48.4502;948.1814;;;;
2019/04/07 17:31:38;;;;;;;8.6;7.8;;;;;;;14.95;49.73633;948.1376;;;;
2019/04/07 17:34:18;;;;;;;8.7;7.8;;;;;;;14.91;50.30371;948.2114;;;;
2019/04/07 17:36:43;;;;;;;9.3;8.4;;;;;;;14.82;49.8623;948.1896;;;;
2019/04/07 17:39:24;;;;;;;9;8.1;;;;;;;14.85;49.76074;948.13;;;;
2019/04/07 17:41:40;;;;;;;8.6;7.8;;;;;;;14.75;49.9707;948.1699;;;;
2019/04/07 17:47:19;;;;;;;8.1;7.3;;;;;;;14.46;50.69531;948.2438;;;;